createdAt,value
2022-08-05T00:00:46.223Z,7.82
2022-08-05T00:01:49.636Z,7.38
2022-08-05T00:02:52.391Z,6.03
2022-08-05T00:03:54.666Z,6.57
2022-08-05T00:04:59.494Z,6.70
2022-08-05T00:06:21.195Z,10.55
2022-08-05T00:08:00.495Z,9.10
2022-08-05T00:08:46.680Z,8.75
2022-08-05T00:09:49.677Z,11.63
2022-08-05T00:10:51.880Z,10.68
2022-08-05T00:11:56.167Z,13.32
2022-08-05T00:13:02.087Z,10.07
2022-08-05T00:14:13.104Z,6.82
2022-08-05T00:15:55.979Z,8.23
2022-08-05T00:16:52.856Z,14.13
2022-08-05T00:17:55.976Z,7.90
2022-08-05T00:18:58.160Z,5.85
2022-08-05T00:20:02.769Z,8.68
2022-08-05T00:21:06.814Z,9.32
2022-08-05T00:22:11.466Z,8.32
2022-08-05T00:23:13.888Z,7.53
2022-08-05T00:24:24.091Z,10.05
2022-08-05T00:25:27.167Z,8.38
2022-08-05T00:27:57.578Z,12.20
2022-08-05T00:29:00.432Z,10.02
2022-08-05T00:30:05.647Z,6.55
2022-08-05T00:31:14.256Z,10.07
2022-08-05T00:32:16.501Z,6.65
2022-08-05T00:34:54.152Z,7.32
2022-08-05T00:35:05.709Z,10.18
2022-08-05T00:36:16.018Z,6.15
2022-08-05T00:37:27.733Z,6.53
2022-08-05T00:38:49.588Z,6.85
2022-08-05T00:39:58.132Z,8.23
2022-08-05T00:41:01.535Z,9.73
2022-08-05T00:42:04.052Z,9.70
2022-08-05T00:43:07.522Z,8.05
2022-08-05T00:44:09.934Z,11.80
2022-08-05T00:45:13.585Z,12.65
2022-08-05T00:46:15.839Z,10.98
2022-08-05T00:47:18.249Z,8.93
2022-08-05T00:48:27.501Z,9.90
2022-08-05T00:49:44.620Z,6.80
2022-08-05T00:50:54.130Z,8.20
2022-08-05T00:51:56.317Z,10.85
2022-08-05T00:52:59.606Z,8.73
2022-08-05T00:54:02.781Z,8.90
2022-08-05T00:55:05.810Z,11.70
2022-08-05T00:56:08.297Z,8.02
2022-08-05T00:57:10.557Z,10.32
2022-08-05T00:58:14.463Z,10.60
2022-08-05T00:59:16.697Z,10.23
2022-08-05T01:00:19.972Z,9.10
2022-08-05T01:01:42.226Z,11.35
2022-08-05T01:02:45.234Z,13.73
2022-08-05T01:03:49.924Z,8.98
2022-08-05T01:04:52.279Z,7.55
2022-08-05T01:05:55.048Z,11.98
2022-08-05T01:06:57.281Z,10.77
2022-08-05T01:08:39.826Z,11.15
2022-08-05T01:09:23.297Z,15.25
2022-08-05T01:10:34.719Z,10.48
2022-08-05T01:11:39.504Z,6.72
2022-08-05T01:13:00.413Z,8.77
2022-08-05T01:14:47.730Z,8.00
2022-08-05T01:15:56.623Z,14.38
2022-08-05T01:17:05.503Z,8.57
2022-08-05T01:18:14.395Z,11.27
2022-08-05T01:19:57.042Z,13.43
2022-08-05T01:20:58.387Z,11.60
2022-08-05T01:22:24.196Z,13.00
2022-08-05T01:23:34.723Z,10.38
2022-08-05T01:25:05.821Z,9.07
2022-08-05T01:26:29.833Z,11.30
2022-08-05T01:28:18.330Z,10.27
2022-08-05T01:29:31.570Z,9.80
2022-08-05T01:30:52.434Z,8.98
2022-08-05T01:32:02.247Z,9.07
2022-08-05T01:33:09.316Z,8.77
2022-08-05T01:34:26.690Z,9.77
2022-08-05T01:35:52.107Z,10.63
2022-08-05T01:37:02.800Z,8.93
2022-08-05T01:38:06.811Z,9.37
2022-08-05T01:39:10.853Z,9.52
2022-08-05T01:40:17.906Z,9.45
2022-08-05T01:41:22.690Z,11.38
2022-08-05T01:42:30.388Z,10.30
2022-08-05T01:43:34.447Z,11.68
2022-08-05T01:44:37.525Z,8.63
2022-08-05T01:45:43.079Z,9.73
2022-08-05T01:46:46.632Z,9.85
2022-08-05T01:47:50.469Z,10.98
2022-08-05T01:48:58.872Z,9.27
2022-08-05T01:50:05.977Z,11.63
2022-08-05T01:51:12.294Z,9.70
2022-08-05T01:52:17.821Z,16.45
2022-08-05T01:53:54.753Z,13.90
2022-08-05T01:54:58.622Z,12.73
2022-08-05T01:56:04.818Z,11.00
2022-08-05T01:58:13.190Z,15.45
2022-08-05T01:58:40.870Z,16.48
2022-08-05T01:59:57.663Z,12.38
2022-08-05T02:01:02.955Z,11.07
2022-08-05T02:02:10.565Z,18.75
2022-08-05T02:03:31.538Z,15.68
2022-08-05T02:04:38.201Z,10.45
2022-08-05T02:05:45.006Z,12.00
2022-08-05T02:06:50.948Z,10.70
2022-08-05T02:07:59.925Z,10.68
2022-08-05T02:09:05.004Z,13.57
2022-08-05T02:10:08.754Z,14.70
2022-08-05T02:11:14.973Z,9.35
2022-08-05T02:12:34.584Z,11.65
2022-08-05T02:15:19.567Z,12.10
2022-08-05T02:16:47.030Z,14.27
2022-08-05T02:18:36.952Z,9.25
2022-08-05T02:19:51.000Z,12.05
2022-08-05T02:20:58.728Z,13.27
2022-08-05T02:22:27.289Z,10.68
2022-08-05T02:23:37.064Z,9.23
2022-08-05T02:24:46.625Z,11.38
2022-08-05T02:25:54.247Z,8.23
2022-08-05T02:27:09.085Z,10.77
2022-08-05T02:28:15.047Z,13.23
2022-08-05T02:29:59.993Z,9.55
2022-08-05T02:31:02.303Z,12.25
2022-08-05T02:32:09.603Z,10.13
2022-08-05T02:33:24.373Z,10.93
2022-08-05T02:34:38.791Z,14.05
2022-08-05T02:35:55.882Z,11.52
2022-08-05T02:37:04.345Z,11.73
2022-08-05T02:38:09.556Z,10.32
2022-08-05T02:39:15.203Z,9.82
2022-08-05T02:40:18.690Z,17.33
2022-08-05T02:41:23.688Z,10.10
2022-08-05T02:42:36.088Z,14.88
2022-08-05T02:44:02.837Z,15.50
2022-08-05T02:45:06.556Z,10.20
2022-08-05T02:46:09.986Z,11.60
2022-08-05T02:47:20.670Z,12.35
2022-08-05T02:48:29.527Z,11.57
2022-08-05T02:49:37.692Z,12.35
2022-08-05T02:50:47.174Z,13.15
2022-08-05T02:52:03.540Z,10.82
2022-08-05T02:53:06.669Z,10.85
2022-08-05T02:54:34.451Z,9.38
2022-08-05T02:55:52.077Z,12.60
2022-08-05T02:56:58.943Z,11.48
2022-08-05T02:58:09.192Z,9.82
2022-08-05T02:59:17.226Z,11.63
2022-08-05T03:00:20.913Z,11.27
2022-08-05T03:01:25.339Z,11.63
2022-08-05T03:02:35.042Z,15.98
2022-08-05T03:04:02.666Z,10.90
2022-08-05T03:05:05.026Z,11.75
2022-08-05T03:06:55.502Z,10.00
2022-08-05T03:08:01.007Z,8.38
2022-08-05T03:08:57.806Z,12.27
2022-08-05T03:10:02.971Z,16.40
2022-08-05T03:11:56.548Z,9.77
2022-08-05T03:12:39.934Z,8.88
2022-08-05T03:13:52.223Z,11.82
2022-08-05T03:15:09.179Z,12.45
2022-08-05T03:16:11.736Z,9.07
2022-08-05T03:17:18.022Z,13.13
2022-08-05T03:18:30.072Z,11.50
2022-08-05T03:19:34.566Z,14.98
2022-08-05T03:20:38.920Z,10.15
2022-08-05T03:21:50.851Z,9.57
2022-08-05T03:22:55.217Z,13.35
2022-08-05T03:24:01.163Z,8.15
2022-08-05T03:25:31.753Z,12.10
2022-08-05T03:26:31.828Z,9.05
2022-08-05T03:27:58.905Z,10.85
2022-08-05T03:28:57.139Z,10.35
2022-08-05T03:30:08.144Z,9.98
2022-08-05T03:31:55.391Z,9.02
2022-08-05T03:32:34.741Z,11.20
2022-08-05T03:33:52.807Z,11.68
2022-08-05T03:34:55.522Z,12.00
2022-08-05T03:35:58.759Z,10.07
2022-08-05T03:37:02.920Z,13.10
2022-08-05T03:38:05.210Z,8.35
2022-08-05T03:39:12.827Z,9.88
2022-08-05T03:40:31.090Z,11.50
2022-08-05T03:41:38.687Z,9.05
2022-08-05T03:42:52.144Z,13.98
2022-08-05T03:44:09.902Z,11.35
2022-08-05T03:45:21.544Z,11.43
2022-08-05T03:46:26.853Z,11.15
2022-08-05T03:47:35.473Z,11.52
2022-08-05T03:48:45.375Z,14.70
2022-08-05T03:49:51.425Z,13.05
2022-08-05T03:52:37.213Z,9.38
2022-08-05T03:55:00.045Z,8.05
2022-08-05T03:55:53.225Z,10.50
2022-08-05T03:56:09.264Z,12.75
2022-08-05T03:57:17.884Z,11.38
2022-08-05T03:58:27.163Z,12.98
2022-08-05T03:59:47.262Z,14.85
2022-08-05T04:01:01.641Z,10.95
2022-08-05T04:02:12.192Z,8.93
2022-08-05T04:03:26.680Z,8.43
2022-08-05T04:04:32.754Z,12.13
2022-08-05T04:05:38.584Z,10.27
2022-08-05T04:06:47.729Z,8.75
2022-08-05T04:07:57.454Z,8.77
2022-08-05T04:09:02.037Z,10.80
2022-08-05T04:10:05.075Z,11.50
2022-08-05T04:11:08.706Z,10.55
2022-08-05T04:12:24.753Z,13.70
2022-08-05T04:13:51.059Z,12.63
2022-08-05T04:14:50.695Z,7.88
2022-08-05T04:16:04.800Z,12.82
2022-08-05T04:17:09.009Z,10.18
2022-08-05T04:18:20.515Z,10.63
2022-08-05T04:19:24.822Z,8.93
2022-08-05T04:20:27.055Z,9.05
2022-08-05T04:22:09.546Z,8.75
2022-08-05T04:22:52.128Z,9.95
2022-08-05T04:23:58.426Z,7.63
2022-08-05T04:25:09.479Z,10.80
2022-08-05T04:26:17.326Z,8.90
2022-08-05T04:27:33.276Z,14.13
2022-08-05T04:28:51.039Z,8.45
2022-08-05T04:29:54.200Z,9.15
2022-08-05T04:30:56.859Z,10.25
2022-08-05T04:32:00.178Z,9.38
2022-08-05T04:33:02.681Z,9.93
2022-08-05T04:34:31.307Z,11.68
2022-08-05T04:35:27.045Z,9.52
2022-08-05T04:36:50.208Z,8.15
2022-08-05T04:38:02.933Z,9.23
2022-08-05T04:39:08.955Z,13.10
2022-08-05T04:40:11.580Z,12.70
2022-08-05T04:41:13.813Z,8.75
2022-08-05T04:42:16.046Z,9.13
2022-08-05T04:43:18.266Z,11.15
2022-08-05T04:44:29.210Z,7.97
2022-08-05T04:45:48.798Z,10.30
2022-08-05T04:46:51.652Z,9.05
2022-08-05T04:47:55.044Z,9.40
2022-08-05T04:48:59.815Z,8.60
2022-08-05T04:50:11.340Z,9.93
2022-08-05T04:51:13.924Z,6.78
2022-08-05T04:52:16.317Z,9.25
2022-08-05T04:53:19.140Z,7.50
2022-08-05T04:54:22.932Z,10.50
2022-08-05T04:56:15.419Z,8.95
2022-08-05T04:56:48.788Z,10.15
2022-08-05T04:57:51.601Z,8.25
2022-08-05T04:58:56.619Z,8.10
2022-08-05T04:59:59.021Z,9.93
2022-08-05T05:01:01.311Z,9.57
2022-08-05T05:02:07.058Z,9.20
2022-08-05T05:03:25.728Z,9.93
2022-08-05T05:04:48.065Z,7.93
2022-08-05T05:06:36.133Z,6.82
2022-08-05T05:07:17.358Z,8.90
2022-08-05T05:08:26.714Z,9.75
2022-08-05T05:09:32.755Z,10.23
2022-08-05T05:10:47.370Z,9.30
2022-08-05T05:12:02.912Z,5.68
2022-08-05T05:13:05.446Z,9.63
2022-08-05T05:14:08.630Z,7.00
2022-08-05T05:15:11.114Z,9.00
2022-08-05T05:16:13.283Z,11.27
2022-08-05T05:17:23.279Z,7.85
2022-08-05T05:18:31.638Z,9.32
2022-08-05T05:19:44.360Z,8.73
2022-08-05T05:20:50.229Z,9.05
2022-08-05T05:21:55.406Z,7.88
2022-08-05T05:22:59.177Z,6.63
2022-08-05T05:24:03.926Z,8.60
2022-08-05T05:25:16.670Z,7.68
2022-08-05T05:26:19.723Z,8.05
2022-08-05T05:27:44.524Z,8.32
2022-08-05T05:28:48.371Z,7.78
2022-08-05T05:30:04.434Z,6.88
2022-08-05T05:31:08.781Z,8.13
2022-08-05T05:32:12.494Z,8.48
2022-08-05T05:33:17.900Z,8.13
2022-08-05T05:34:27.102Z,7.93
2022-08-05T05:35:34.493Z,8.57
2022-08-05T05:36:40.408Z,10.38
2022-08-05T05:37:59.574Z,7.38
2022-08-05T05:39:03.767Z,12.40
2022-08-05T05:40:07.636Z,4.47
2022-08-05T05:41:09.869Z,5.97
2022-08-05T05:42:14.507Z,12.57
2022-08-05T05:43:22.198Z,6.88
2022-08-05T05:44:44.472Z,9.18
2022-08-05T05:45:48.559Z,6.68
2022-08-05T05:46:51.184Z,5.85
2022-08-05T05:48:06.443Z,8.65
2022-08-05T05:49:22.568Z,6.13
2022-08-05T05:50:25.860Z,7.32
2022-08-05T05:51:28.300Z,10.70
2022-08-05T05:52:33.173Z,10.13
2022-08-05T05:53:45.939Z,5.50
2022-08-05T05:55:00.790Z,7.80
2022-08-05T05:56:04.312Z,5.10
2022-08-05T05:57:13.570Z,8.60
2022-08-05T05:58:31.428Z,7.10
2022-08-05T05:59:40.421Z,8.13
2022-08-05T06:00:45.888Z,8.30
2022-08-05T06:01:57.198Z,8.68
2022-08-05T06:03:01.716Z,7.65
2022-08-05T06:04:04.175Z,5.95
2022-08-05T06:05:16.574Z,8.90
2022-08-05T06:06:19.285Z,10.88
2022-08-05T06:07:41.695Z,8.13
2022-08-05T06:08:44.601Z,5.22
2022-08-05T06:10:00.535Z,5.55
2022-08-05T06:11:04.969Z,5.95
2022-08-05T06:12:09.738Z,7.65
2022-08-05T06:13:14.269Z,5.72
2022-08-05T06:14:16.488Z,8.55
2022-08-05T06:15:24.041Z,7.75
2022-08-05T06:16:28.883Z,5.88
2022-08-05T06:17:53.111Z,6.57
2022-08-05T06:18:55.978Z,5.88
2022-08-05T06:20:03.125Z,6.95
2022-08-05T06:21:05.364Z,7.75
2022-08-05T06:22:27.034Z,6.72
2022-08-05T06:23:43.553Z,11.75
2022-08-05T06:24:48.213Z,8.30
2022-08-05T06:26:12.400Z,8.40
2022-08-05T06:28:09.106Z,8.00
2022-08-05T06:28:36.882Z,7.88
2022-08-05T06:29:51.968Z,10.18
2022-08-05T06:31:01.549Z,7.15
2022-08-05T06:32:25.233Z,8.32
2022-08-05T06:34:06.109Z,7.95
2022-08-05T06:34:56.531Z,6.60
2022-08-05T06:36:03.448Z,5.97
2022-08-05T06:37:10.319Z,9.07
2022-08-05T06:38:14.656Z,8.30
2022-08-05T06:39:18.341Z,4.47
2022-08-05T06:40:27.951Z,8.25
2022-08-05T06:41:34.833Z,6.32
2022-08-05T06:42:43.479Z,6.28
2022-08-05T06:43:58.694Z,6.97
2022-08-05T06:45:05.601Z,9.32
2022-08-05T06:46:11.180Z,8.18
2022-08-05T06:47:29.898Z,8.18
2022-08-05T06:48:54.619Z,6.25
2022-08-05T06:50:01.864Z,6.90
2022-08-05T06:51:09.588Z,4.72
2022-08-05T06:52:37.007Z,8.18
2022-08-05T06:53:39.130Z,6.30
2022-08-05T06:54:41.654Z,6.18
2022-08-05T06:55:43.914Z,7.90
2022-08-05T06:56:55.041Z,7.95
2022-08-05T06:58:29.826Z,9.27
2022-08-05T06:59:38.545Z,10.25
2022-08-05T07:00:41.326Z,6.93
2022-08-05T07:01:43.647Z,6.50
2022-08-05T07:02:48.442Z,10.77
2022-08-05T07:03:56.238Z,6.35
2022-08-05T07:04:58.406Z,5.60
2022-08-05T07:06:06.234Z,7.97
2022-08-05T07:07:17.104Z,8.88
2022-08-05T07:08:27.849Z,7.68
2022-08-05T07:09:32.375Z,8.27
2022-08-05T07:10:53.294Z,7.43
2022-08-05T07:11:56.353Z,6.93
2022-08-05T07:13:39.515Z,7.13
2022-08-05T07:15:02.474Z,10.10
2022-08-05T07:17:56.196Z,7.35
2022-08-05T07:17:59.255Z,6.40
2022-08-05T07:19:06.042Z,6.13
2022-08-05T07:20:32.150Z,4.93
2022-08-05T07:22:00.795Z,10.55
2022-08-05T07:22:54.639Z,9.48
2022-08-05T07:23:57.186Z,7.40
2022-08-05T07:25:23.775Z,5.30
2022-08-05T07:26:26.373Z,7.13
2022-08-05T07:27:56.404Z,10.57
2022-08-05T07:28:51.313Z,8.07
2022-08-05T07:30:25.508Z,6.75
2022-08-05T07:31:15.758Z,7.07
2022-08-05T07:32:17.899Z,7.25
2022-08-05T07:33:36.949Z,11.52
2022-08-05T07:34:42.267Z,5.85
2022-08-05T07:36:02.372Z,8.15
2022-08-05T07:37:08.315Z,7.30
2022-08-05T07:38:26.464Z,5.80
2022-08-05T07:40:04.112Z,7.97
2022-08-05T07:41:00.318Z,8.07
2022-08-05T07:42:14.160Z,4.15
2022-08-05T07:44:23.274Z,8.77
2022-08-05T07:45:56.639Z,6.10
2022-08-05T07:46:49.497Z,9.48
2022-08-05T07:47:55.766Z,5.65
2022-08-05T07:49:04.878Z,8.13
2022-08-05T07:50:08.461Z,6.10
2022-08-05T07:51:23.398Z,8.65
2022-08-05T07:52:37.843Z,5.25
2022-08-05T07:53:50.593Z,10.25
2022-08-05T07:54:53.390Z,8.13
2022-08-05T07:56:06.203Z,5.22
2022-08-05T07:57:42.071Z,10.35
2022-08-05T07:58:54.908Z,7.60
2022-08-05T08:00:01.647Z,4.70
2022-08-05T08:01:14.106Z,6.07
2022-08-05T08:02:18.249Z,6.45
2022-08-05T08:03:21.550Z,7.28
2022-08-05T08:04:38.200Z,6.78
2022-08-05T08:05:47.632Z,7.35
2022-08-05T08:06:52.046Z,6.78
2022-08-05T08:08:00.116Z,5.97
2022-08-05T08:09:03.845Z,4.97
2022-08-05T08:10:08.170Z,8.60
2022-08-05T08:11:10.700Z,5.32
2022-08-05T08:12:37.378Z,6.80
2022-08-05T08:13:43.009Z,7.15
2022-08-05T08:14:51.613Z,10.38
2022-08-05T08:16:49.754Z,6.47
2022-08-05T08:17:16.629Z,6.07
2022-08-05T08:18:20.796Z,7.03
2022-08-05T08:20:21.454Z,7.70
2022-08-05T08:21:02.713Z,9.20
2022-08-05T08:22:07.590Z,7.00
2022-08-05T08:24:02.764Z,6.75
2022-08-05T08:24:51.022Z,6.72
2022-08-05T08:26:00.485Z,6.38
2022-08-05T08:28:18.467Z,7.88
2022-08-05T08:30:03.673Z,8.07
2022-08-05T08:30:53.906Z,6.75
2022-08-05T08:31:56.685Z,4.93
2022-08-05T08:33:04.470Z,5.47
2022-08-05T08:34:10.559Z,4.47
2022-08-05T08:35:13.358Z,5.65
2022-08-05T08:36:49.069Z,6.05
2022-08-05T08:37:38.186Z,5.10
2022-08-05T08:38:53.398Z,7.85
2022-08-05T08:39:55.892Z,9.95
2022-08-05T08:40:59.114Z,10.45
2022-08-05T08:42:02.505Z,7.65
2022-08-05T08:44:54.655Z,7.18
2022-08-05T08:45:20.485Z,7.63
2022-08-05T08:45:57.469Z,7.78
2022-08-05T08:47:02.629Z,10.45
2022-08-05T08:48:22.235Z,7.18
2022-08-05T08:50:12.806Z,8.20
2022-08-05T08:51:22.427Z,11.70
2022-08-05T08:52:24.166Z,6.20
2022-08-05T08:53:28.852Z,7.00
2022-08-05T08:54:32.031Z,6.68
2022-08-05T08:56:04.510Z,8.13
2022-08-05T08:56:57.516Z,5.80
2022-08-05T08:58:03.485Z,9.98
2022-08-05T08:59:14.744Z,7.97
2022-08-05T09:00:21.935Z,7.22
2022-08-05T09:01:24.379Z,11.75
2022-08-05T09:02:28.056Z,8.82
2022-08-05T09:03:45.404Z,7.72
2022-08-05T09:05:16.093Z,10.07
2022-08-05T09:06:11.555Z,7.40
2022-08-05T09:07:19.657Z,10.65
2022-08-05T09:08:31.596Z,6.70
2022-08-05T09:09:35.889Z,6.53
2022-08-05T09:10:46.834Z,8.88
2022-08-05T09:11:51.727Z,8.27
2022-08-05T09:13:04.508Z,11.18
2022-08-05T09:14:54.771Z,6.45
2022-08-05T09:15:31.579Z,7.63
2022-08-05T09:16:40.106Z,5.40
2022-08-05T09:17:53.086Z,7.03
2022-08-05T09:18:55.639Z,9.63
2022-08-05T09:20:02.759Z,6.70
2022-08-05T09:21:11.628Z,6.50
2022-08-05T09:22:31.619Z,6.45
2022-08-05T09:23:37.255Z,6.68
2022-08-05T09:24:58.245Z,4.25
2022-08-05T09:26:20.896Z,5.78
2022-08-05T09:28:04.810Z,7.07
2022-08-05T09:29:04.355Z,7.85
2022-08-05T09:30:07.335Z,4.88
2022-08-05T09:32:38.797Z,4.88
2022-08-05T09:32:42.205Z,4.32
2022-08-05T09:34:01.556Z,4.80
2022-08-05T09:35:26.673Z,7.13
2022-08-05T09:36:59.700Z,5.18
2022-08-05T09:38:12.415Z,6.68
2022-08-05T09:39:22.477Z,7.90
2022-08-05T09:40:38.091Z,5.40
2022-08-05T09:42:01.463Z,5.55
2022-08-05T09:43:10.363Z,5.45
2022-08-05T09:44:33.051Z,4.85
2022-08-05T09:46:06.697Z,4.97
2022-08-05T09:47:22.522Z,6.32
2022-08-05T09:48:26.976Z,5.75
2022-08-05T09:49:54.668Z,4.38
2022-08-05T09:51:15.300Z,6.40
2022-08-05T09:52:19.311Z,3.45
2022-08-05T09:53:26.166Z,4.18
2022-08-05T09:54:53.499Z,7.15
2022-08-05T09:56:04.564Z,4.78
2022-08-05T09:57:23.231Z,4.53
2022-08-05T09:58:29.033Z,4.10
2022-08-05T09:59:34.869Z,6.07
2022-08-05T10:00:39.515Z,5.30
2022-08-05T10:01:45.752Z,7.35
2022-08-05T10:02:54.522Z,5.20
2022-08-05T10:04:11.057Z,7.25
2022-08-05T10:05:13.363Z,3.80
2022-08-05T10:06:19.612Z,6.88
2022-08-05T10:07:31.975Z,5.30
2022-08-05T10:08:50.285Z,8.77
2022-08-05T10:10:04.208Z,6.53
2022-08-05T10:11:18.834Z,5.38
2022-08-05T10:12:33.526Z,4.68
2022-08-05T10:13:47.093Z,5.95
2022-08-05T10:14:50.514Z,3.72
2022-08-05T10:15:58.320Z,3.70
2022-08-05T10:17:14.147Z,7.30
2022-08-05T10:18:37.108Z,8.05
2022-08-05T10:20:03.986Z,6.90
2022-08-05T10:21:06.185Z,4.85
2022-08-05T10:22:15.741Z,3.90
2022-08-05T10:23:59.020Z,4.80
2022-08-05T10:25:00.734Z,4.88
2022-08-05T10:26:07.114Z,7.80
2022-08-05T10:27:11.490Z,4.78
2022-08-05T10:28:19.479Z,4.22
2022-08-05T10:30:07.038Z,5.90
2022-08-05T10:32:48.910Z,8.00
2022-08-05T10:32:55.766Z,3.67
2022-08-05T10:33:45.989Z,4.13
2022-08-05T10:34:55.415Z,6.40
2022-08-05T10:35:59.814Z,4.97
2022-08-05T10:37:02.506Z,4.57
2022-08-05T10:38:06.065Z,6.97
2022-08-05T10:39:25.117Z,4.55
2022-08-05T10:41:03.949Z,6.72
2022-08-05T10:42:33.354Z,6.18
2022-08-05T10:43:45.597Z,6.10
2022-08-05T10:44:48.613Z,4.88
2022-08-05T10:46:06.172Z,4.57
2022-08-05T10:47:26.047Z,5.20
2022-08-05T10:48:36.009Z,5.43
2022-08-05T10:50:33.097Z,2.30
2022-08-05T10:51:28.447Z,4.53
2022-08-05T10:52:47.034Z,3.08
2022-08-05T10:53:55.852Z,5.68
2022-08-05T10:55:06.854Z,3.40
2022-08-05T10:56:25.091Z,4.20
2022-08-05T10:57:32.312Z,2.17
2022-08-05T10:58:49.570Z,3.50
2022-08-05T11:00:12.175Z,4.78
2022-08-05T11:01:54.750Z,2.75
2022-08-05T11:03:24.342Z,1.95
2022-08-05T11:04:27.910Z,4.55
2022-08-05T11:05:34.344Z,5.07
2022-08-05T11:07:06.570Z,4.70
2022-08-05T11:08:36.679Z,2.97
2022-08-05T11:09:45.299Z,3.40
2022-08-05T11:10:50.208Z,3.78
2022-08-05T11:12:03.697Z,3.58
2022-08-05T11:13:06.889Z,2.72
2022-08-05T11:14:11.601Z,4.93
2022-08-05T11:15:19.928Z,3.17
2022-08-05T11:16:47.713Z,3.72
2022-08-05T11:18:00.179Z,5.28
2022-08-05T11:20:10.754Z,2.05
2022-08-05T11:20:53.634Z,5.82
2022-08-05T11:21:57.918Z,3.70
2022-08-05T11:23:05.967Z,5.55
2022-08-05T11:24:29.625Z,4.85
2022-08-05T11:26:04.309Z,3.05
2022-08-05T11:27:50.148Z,2.45
2022-08-05T11:28:54.669Z,6.90
2022-08-05T11:30:00.533Z,5.13
2022-08-05T11:31:06.503Z,4.70
2022-08-05T11:32:27.434Z,3.70
2022-08-05T11:33:46.667Z,3.70
2022-08-05T11:34:51.372Z,3.50
2022-08-05T11:36:08.711Z,3.97
2022-08-05T11:38:26.825Z,5.40
2022-08-05T11:38:45.843Z,4.53
2022-08-05T11:40:00.340Z,3.67
2022-08-05T11:41:35.123Z,7.93
2022-08-05T11:42:32.066Z,3.20
2022-08-05T11:44:01.032Z,5.65
2022-08-05T11:45:05.417Z,2.83
2022-08-05T11:47:49.494Z,5.80
2022-08-05T11:48:53.566Z,6.90
2022-08-05T11:50:00.735Z,4.38
2022-08-05T11:51:04.207Z,8.93
2022-08-05T11:52:11.442Z,3.25
2022-08-05T11:53:15.461Z,3.55
2022-08-05T11:54:33.489Z,6.28
2022-08-05T11:55:36.757Z,3.40
2022-08-05T11:56:53.107Z,4.32
2022-08-05T11:58:10.616Z,3.15
2022-08-05T11:59:22.313Z,1.65
2022-08-05T12:00:29.140Z,3.67
2022-08-05T12:01:32.636Z,3.95
2022-08-05T12:02:36.249Z,3.13
2022-08-05T12:03:45.124Z,3.67
2022-08-05T12:05:00.313Z,5.13
2022-08-05T12:06:05.807Z,6.30
2022-08-05T12:07:14.501Z,3.90
2022-08-05T12:08:18.434Z,4.25
2022-08-05T12:09:37.886Z,3.95
2022-08-05T12:10:53.683Z,4.60
2022-08-05T12:11:57.703Z,3.25
2022-08-05T12:13:16.505Z,3.58
2022-08-05T12:14:21.555Z,4.10
2022-08-05T12:15:35.947Z,4.97
2022-08-05T12:16:45.452Z,4.60
2022-08-05T12:18:03.832Z,5.80
2022-08-05T12:20:17.189Z,3.28
2022-08-05T12:20:38.472Z,2.80
2022-08-05T12:21:47.146Z,1.85
2022-08-05T12:22:51.885Z,3.15
2022-08-05T12:24:17.159Z,2.72
2022-08-05T12:25:19.702Z,3.50
2022-08-05T12:26:23.897Z,2.58
2022-08-05T12:27:32.939Z,1.80
2022-08-05T12:28:37.653Z,5.75
2022-08-05T12:29:40.023Z,3.45
2022-08-05T12:30:46.080Z,2.85
2022-08-05T12:31:54.012Z,4.30
2022-08-05T12:32:58.680Z,5.45
2022-08-05T12:34:10.032Z,2.55
2022-08-05T12:35:24.549Z,5.93
2022-08-05T12:36:40.271Z,5.82
2022-08-05T12:37:46.343Z,2.05
2022-08-05T12:38:50.903Z,1.60
2022-08-05T12:39:53.921Z,2.88
2022-08-05T12:40:57.466Z,4.30
2022-08-05T12:42:00.389Z,1.75
2022-08-05T12:43:02.524Z,2.55
2022-08-05T12:44:06.388Z,2.00
2022-08-05T12:45:14.642Z,2.08
2022-08-05T12:46:28.906Z,4.05
2022-08-05T12:47:32.456Z,1.85
2022-08-05T12:48:39.965Z,1.95
2022-08-05T12:50:04.561Z,2.10
2022-08-05T12:52:09.971Z,3.33
2022-08-05T12:52:42.458Z,2.88
2022-08-05T12:53:55.579Z,2.83
2022-08-05T12:54:58.283Z,1.65
2022-08-05T12:56:01.242Z,1.88
2022-08-05T12:57:09.599Z,4.25
2022-08-05T12:58:48.551Z,1.95
2022-08-05T13:02:00.629Z,1.23
2022-08-05T13:02:04.265Z,3.22
2022-08-05T13:02:36.263Z,2.55
2022-08-05T13:03:42.133Z,3.45
2022-08-05T13:04:54.509Z,3.30
2022-08-05T13:05:56.865Z,1.50
2022-08-05T13:07:05.200Z,1.38
2022-08-05T13:08:12.646Z,0.90
2022-08-05T13:09:28.286Z,0.45
2022-08-05T13:10:33.075Z,3.42
2022-08-05T13:12:02.375Z,2.17
2022-08-05T13:13:06.492Z,1.42
2022-08-05T13:14:19.816Z,4.57
2022-08-05T13:15:24.333Z,1.20
2022-08-05T13:16:28.650Z,5.00
2022-08-05T13:17:41.998Z,1.17
2022-08-05T13:18:58.530Z,1.30
2022-08-05T13:20:01.296Z,0.30
2022-08-05T13:21:03.634Z,2.13
2022-08-05T13:22:06.281Z,4.03
2022-08-05T13:23:09.125Z,0.80
2022-08-05T13:24:11.577Z,1.25
2022-08-05T13:25:19.542Z,1.58
2022-08-05T13:26:30.177Z,2.67
2022-08-05T13:27:38.228Z,3.38
2022-08-05T13:28:44.144Z,0.73
2022-08-05T13:29:59.397Z,1.15
2022-08-05T13:31:14.212Z,1.98
2022-08-05T13:32:29.142Z,2.05
2022-08-05T13:34:21.944Z,3.17
2022-08-05T13:34:55.637Z,0.65
2022-08-05T13:35:57.782Z,2.40
2022-08-05T13:37:04.217Z,1.08
2022-08-05T13:38:10.211Z,2.75
2022-08-05T13:40:14.313Z,1.10
2022-08-05T13:40:51.718Z,5.55
2022-08-05T13:41:54.602Z,0.35
2022-08-05T13:42:58.393Z,1.58
2022-08-05T13:44:00.722Z,1.70
2022-08-05T13:45:04.897Z,2.50
2022-08-05T13:46:08.628Z,0.95
2022-08-05T13:47:10.820Z,3.25
2022-08-05T13:48:57.336Z,1.80
2022-08-05T13:49:55.420Z,0.75
2022-08-05T13:51:13.370Z,1.73
2022-08-05T13:52:29.207Z,1.48
2022-08-05T13:53:33.458Z,3.67
2022-08-05T13:54:53.457Z,1.08
2022-08-05T13:55:58.835Z,0.75
2022-08-05T13:57:04.314Z,2.17
2022-08-05T13:58:08.502Z,2.60
2022-08-05T13:59:19.999Z,2.15
2022-08-05T14:00:26.740Z,0.68
2022-08-05T14:01:44.155Z,0.70
2022-08-05T14:02:49.005Z,2.17
2022-08-05T14:04:09.879Z,2.00
2022-08-05T14:06:26.671Z,2.80
2022-08-05T14:08:00.725Z,2.65
2022-08-05T14:08:56.855Z,1.30
2022-08-05T14:10:02.742Z,1.75
2022-08-05T14:11:20.157Z,3.42
2022-08-05T14:12:32.192Z,1.38
2022-08-05T14:13:35.001Z,2.17
2022-08-05T14:14:37.203Z,0.85
2022-08-05T14:16:09.128Z,3.33
2022-08-05T14:17:01.621Z,2.45
2022-08-05T14:18:04.653Z,3.78
2022-08-05T14:19:06.957Z,2.67
2022-08-05T14:20:09.756Z,0.55
2022-08-05T14:22:08.126Z,0.17
2022-08-05T14:22:50.194Z,0.45
2022-08-05T14:23:52.645Z,0.40
2022-08-05T14:24:55.779Z,1.70
2022-08-05T14:25:59.555Z,1.48
2022-08-05T14:27:17.423Z,4.97
2022-08-05T14:28:26.246Z,4.95
2022-08-05T14:29:29.146Z,3.10
2022-08-05T14:30:33.638Z,0.60
2022-08-05T14:32:02.831Z,2.65
2022-08-05T14:33:00.431Z,2.10
2022-08-05T14:34:02.764Z,1.90
2022-08-05T14:35:05.713Z,7.85
2022-08-05T14:36:12.977Z,0.22
2022-08-05T14:37:15.146Z,1.48
2022-08-05T14:38:32.561Z,0.65
2022-08-05T14:39:48.500Z,0.90
2022-08-05T14:40:52.622Z,1.15
2022-08-05T14:42:19.264Z,2.08
2022-08-05T14:43:17.666Z,1.58
2022-08-05T14:44:21.926Z,2.38
2022-08-05T14:45:24.181Z,0.20
2022-08-05T14:46:28.927Z,0.65
2022-08-05T14:48:05.536Z,1.25
2022-08-05T14:48:54.626Z,4.32
2022-08-05T14:50:00.663Z,0.57
2022-08-05T14:51:05.418Z,0.35
2022-08-05T14:52:10.729Z,0.93
2022-08-05T14:53:20.788Z,2.03
2022-08-05T14:54:28.717Z,1.08
2022-08-05T14:55:39.548Z,2.50
2022-08-05T14:56:44.038Z,0.63
2022-08-05T14:57:56.241Z,0.30
2022-08-05T14:58:58.845Z,1.77
2022-08-05T15:00:01.342Z,1.35
2022-08-05T15:01:04.020Z,0.70
2022-08-05T15:02:14.944Z,2.83
2022-08-05T15:03:33.518Z,1.02
2022-08-05T15:04:36.516Z,6.07
2022-08-05T15:06:07.910Z,0.82
2022-08-05T15:07:00.997Z,0.82
2022-08-05T15:08:11.379Z,1.20
2022-08-05T15:09:54.113Z,1.35
2022-08-05T15:10:43.495Z,3.63
2022-08-05T15:11:52.283Z,1.33
2022-08-05T15:13:00.873Z,1.63
2022-08-05T15:14:04.050Z,1.90
2022-08-05T15:15:06.812Z,1.58
2022-08-05T15:16:17.976Z,3.05
2022-08-05T15:17:46.721Z,1.35
2022-08-05T15:18:42.477Z,0.30
2022-08-05T15:19:49.429Z,3.10
2022-08-05T15:20:57.371Z,0.70
2022-08-05T15:22:10.031Z,0.60
2022-08-05T15:23:12.934Z,1.35
2022-08-05T15:24:15.133Z,0.47
2022-08-05T15:25:23.566Z,1.17
2022-08-05T15:26:41.129Z,1.30
2022-08-05T15:27:52.246Z,0.38
2022-08-05T15:28:54.721Z,1.05
2022-08-05T15:29:57.690Z,0.60
2022-08-05T15:31:00.141Z,2.58
2022-08-05T15:32:06.051Z,3.00
2022-08-05T15:33:08.248Z,1.42
2022-08-05T15:34:31.606Z,1.02
2022-08-05T15:35:36.234Z,0.95
2022-08-05T15:36:47.190Z,2.13
2022-08-05T15:38:33.918Z,3.13
2022-08-05T15:41:00.503Z,0.68
2022-08-05T15:41:02.190Z,0.55
2022-08-05T15:41:58.904Z,1.50
2022-08-05T15:43:08.001Z,1.95
2022-08-05T15:44:15.332Z,0.82
2022-08-05T15:45:18.931Z,1.70
2022-08-05T15:46:40.248Z,2.05